Time;durP1;ratioP1;P1;durP2;ratioP2;P2;SDS_P1;SDS_P2;PMS_P1;PMS_P2;Temp;Humidity;BMP_temperature;BMP_pressure;BME280_temperature;BME280_humidity;BME280_pressure;Samples;Min_cycle;Max_cycle;Signal;HPM_P1;HPM_P2
2021/06/15 00:00:15;;;;;;;2.70;1.50;;;;;;;18.97;56.85;100679.59;5079648;28;20040;-71
2021/06/15 00:02:40;;;;;;;1.80;1.38;;;;;;;18.93;56.27;100676.53;5070942;28;20401;-72
2021/06/15 00:05:07;;;;;;;4.28;1.73;;;;;;;18.84;55.83;100675.06;5084979;28;20043;-71
2021/06/15 00:07:32;;;;;;;2.30;1.50;;;;;;;18.79;58.29;100678.34;5070928;28;20047;-72
2021/06/15 00:09:58;;;;;;;2.30;1.80;;;;;;;18.72;57.79;100679.31;5074364;28;20033;-72
2021/06/15 00:12:23;;;;;;;2.33;1.50;;;;;;;18.66;57.67;100680.94;5079448;28;20119;-72
2021/06/15 00:14:48;;;;;;;2.45;1.60;;;;;;;18.59;58.63;100686.28;5077288;28;20036;-72
2021/06/15 00:17:14;;;;;;;3.28;1.70;;;;;;;18.59;59.71;100677.41;5079865;28;20134;-71
2021/06/15 00:19:39;;;;;;;2.28;1.40;;;;;;;18.63;57.88;100678.66;5081728;28;20043;-71
2021/06/15 00:22:04;;;;;;;2.33;1.33;;;;;;;18.67;57.73;100685.28;5074656;28;20040;-72
2021/06/15 00:24:30;;;;;;;1.92;1.25;;;;;;;18.67;57.80;100683.44;5081276;28;20036;-72
2021/06/15 00:26:55;;;;;;;2.40;1.50;;;;;;;18.58;58.66;100681.13;5076787;28;20043;-71
2021/06/15 00:29:21;;;;;;;2.63;1.65;;;;;;;18.51;57.24;100677.59;5074464;28;20120;-71
2021/06/15 00:31:46;;;;;;;2.42;1.63;;;;;;;18.50;57.74;100682.13;5076155;28;20028;-71
2021/06/15 00:34:11;;;;;;;3.28;1.88;;;;;;;18.58;56.52;100676.59;5079641;28;20488;-72
2021/06/15 00:36:36;;;;;;;3.85;1.80;;;;;;;18.57;57.36;100682.16;5088052;28;20032;-71
2021/06/15 00:39:03;;;;;;;2.40;1.60;;;;;;;18.53;58.39;100681.72;5083482;28;20104;-72
2021/06/15 00:41:28;;;;;;;2.78;1.80;;;;;;;18.42;59.38;100680.47;5081151;28;20028;-72
2021/06/15 00:43:54;;;;;;;2.50;1.67;;;;;;;18.36;57.85;100680.44;5082468;28;20028;-71
2021/06/15 00:46:19;;;;;;;3.17;1.60;;;;;;;18.36;57.59;100689.28;5087460;28;20032;-71
2021/06/15 00:48:45;;;;;;;3.30;1.67;;;;;;;18.39;57.65;100686.19;5076773;28;20081;-71
2021/06/15 00:51:12;;;;;;;3.05;1.90;;;;;;;18.49;56.71;100690.34;5075304;28;20454;-73
2021/06/15 00:53:38;;;;;;;5.10;2.17;;;;;;;18.54;56.21;100698.63;5077758;28;20119;-72
2021/06/15 00:56:04;;;;;;;2.42;1.90;;;;;;;18.54;56.08;100694.06;5074889;28;20116;-72
2021/06/15 00:58:30;;;;;;;3.20;2.03;;;;;;;18.48;56.91;100694.06;5071212;28;20032;-72
2021/06/15 01:00:55;;;;;;;2.92;1.83;;;;;;;18.50;56.50;100689.34;5078574;28;20448;-72
2021/06/15 01:03:23;;;;;;;3.85;2.35;;;;;;;18.46;56.70;100688.91;5088789;28;20056;-71
2021/06/15 01:05:48;;;;;;;3.80;1.95;;;;;;;18.48;57.12;100691.41;5080886;28;20028;-71
2021/06/15 01:08:14;;;;;;;5.03;1.90;;;;;;;18.42;56.95;100688.50;5089277;28;20024;-71
2021/06/15 01:10:42;;;;;;;3.83;2.00;;;;;;;18.37;57.19;100690.09;5085774;28;20053;-71
2021/06/15 01:13:26;;;;;;;3.20;2.03;;;;;;;18.31;56.99;100690.91;5082768;28;20824;-71
2021/06/15 01:16:04;;;;;;;3.67;2.20;;;;;;;18.20;57.16;100695.78;5086061;28;20036;-71
2021/06/15 01:18:34;;;;;;;4.18;2.15;;;;;;;18.09;57.75;100685.66;5084812;28;20032;-71
2021/06/15 01:21:02;;;;;;;3.60;2.13;;;;;;;18.12;58.03;100692.47;5082360;28;20028;-71
2021/06/15 01:23:48;;;;;;;2.33;1.90;;;;;;;18.14;57.66;100682.34;5074291;28;20030;-71
2021/06/15 01:26:33;;;;;;;2.55;1.80;;;;;;;18.18;57.86;100683.63;5084358;28;20032;-71
2021/06/15 01:29:02;;;;;;;2.65;1.70;;;;;;;18.19;57.18;100686.13;5084808;28;20511;-71
2021/06/15 01:31:41;;;;;;;3.55;2.08;;;;;;;18.11;57.52;100680.91;5083346;28;20028;-71
2021/06/15 01:34:29;;;;;;;2.88;1.60;;;;;;;18.07;57.85;100685.03;5079720;28;20033;-71
2021/06/15 01:37:17;;;;;;;2.50;1.70;;;;;;;18.09;57.78;100677.63;5087073;28;20128;-71
2021/06/15 01:39:55;;;;;;;3.42;1.80;;;;;;;18.09;57.33;100674.09;5072782;28;20539;-70
2021/06/15 01:42:31;;;;;;;4.00;2.10;;;;;;;18.04;57.70;100677.38;5080695;28;20040;-71
2021/06/15 01:45:06;;;;;;;4.18;2.00;;;;;;;17.97;59.05;100673.81;5073703;28;20397;-71
2021/06/15 01:47:31;;;;;;;3.47;1.90;;;;;;;17.98;58.22;100679.00;5083145;28;20505;-71
2021/06/15 01:50:00;;;;;;;3.55;1.90;;;;;;;18.01;57.93;100669.75;5081780;28;20127;-71
2021/06/15 01:52:34;;;;;;;3.60;2.03;;;;;;;18.07;57.28;100671.63;5079293;28;20129;-71
2021/06/15 01:55:01;;;;;;;2.92;1.77;;;;;;;18.09;57.23;100668.75;5082638;28;20189;-71
2021/06/15 01:57:28;;;;;;;2.85;1.73;;;;;;;18.07;57.08;100674.31;5069070;28;20033;-71
2021/06/15 01:59:57;;;;;;;2.88;1.65;;;;;;;18.01;57.45;100661.72;5057127;28;20029;-71
2021/06/15 02:02:23;;;;;;;3.20;1.83;;;;;;;17.94;57.37;100668.88;5061824;28;20037;-71
2021/06/15 02:04:52;;;;;;;2.63;1.75;;;;;;;17.90;57.46;100665.78;5070613;28;20043;-71
2021/06/15 02:07:23;;;;;;;3.03;2.03;;;;;;;17.88;57.57;100661.66;5055028;28;20056;-71
2021/06/15 02:09:52;;;;;;;3.28;1.70;;;;;;;17.90;57.26;100672.97;5064115;28;20033;-71
2021/06/15 02:12:20;;;;;;;2.40;1.50;;;;;;;17.91;57.37;100671.94;5062865;28;20052;-71
2021/06/15 02:14:45;;;;;;;3.30;1.60;;;;;;;17.88;58.17;100672.34;5064719;28;20135;-71
2021/06/15 02:17:14;;;;;;;3.42;1.80;;;;;;;17.84;58.42;100666.56;5061309;28;20040;-71
2021/06/15 02:19:40;;;;;;;2.65;1.58;;;;;;;17.88;57.77;100661.66;5069039;28;20025;-71
2021/06/15 02:22:12;;;;;;;3.95;1.73;;;;;;;17.90;57.62;100662.25;5066538;28;20101;-73
2021/06/15 02:24:42;;;;;;;3.88;2.10;;;;;;;17.93;57.44;100661.88;5057388;28;20547;-72
2021/06/15 02:27:10;;;;;;;3.10;1.70;;;;;;;17.89;57.61;100655.25;5067300;28;20063;-71
2021/06/15 02:29:36;;;;;;;2.13;1.30;;;;;;;17.88;57.34;100669.69;5053229;28;20438;-71
2021/06/15 02:32:03;;;;;;;2.45;1.65;;;;;;;17.88;57.48;100669.69;5069366;28;20036;-71
2021/06/15 02:34:30;;;;;;;2.72;1.60;;;;;;;17.82;58.00;100661.38;5053983;28;20032;-72
2021/06/15 02:36:58;;;;;;;4.05;1.95;;;;;;;17.83;59.09;100656.88;5070578;28;20037;-72
2021/06/15 02:39:29;;;;;;;3.97;1.70;;;;;;;17.81;57.92;100657.06;5055832;28;20097;-72
2021/06/15 02:41:56;;;;;;;2.95;1.70;;;;;;;17.76;59.39;100662.16;5060714;28;20052;-71
2021/06/15 02:44:28;;;;;;;3.75;1.77;;;;;;;17.74;61.04;100658.03;5060341;28;20693;-72
2021/06/15 02:46:56;;;;;;;2.60;1.80;;;;;;;17.66;60.32;100656.31;5064096;28;20044;-71
2021/06/15 02:49:25;;;;;;;2.78;1.60;;;;;;;17.60;61.36;100657.09;5056032;28;20053;-71
2021/06/15 02:52:05;;;;;;;3.90;1.90;;;;;;;17.57;60.30;100658.31;5055105;28;20033;-72
2021/06/15 02:54:36;;;;;;;3.53;1.90;;;;;;;17.52;60.42;100647.38;5070599;28;20374;-72
2021/06/15 02:57:03;;;;;;;3.75;2.08;;;;;;;17.59;58.64;100658.09;5073333;28;20055;-71
2021/06/15 02:59:29;;;;;;;4.05;2.08;;;;;;;17.63;58.55;100651.34;5079979;28;20032;-72
2021/06/15 03:01:55;;;;;;;4.13;2.28;;;;;;;17.65;58.17;100656.53;5076911;28;20047;-72
2021/06/15 03:04:21;;;;;;;4.68;2.00;;;;;;;17.57;59.93;100652.97;5080632;28;20050;-72
2021/06/15 03:06:47;;;;;;;3.72;1.70;;;;;;;17.56;60.56;100659.31;5089083;28;20454;-72
2021/06/15 03:09:13;;;;;;;3.13;2.08;;;;;;;17.60;58.64;100647.22;5083774;28;20032;-72
2021/06/15 03:11:47;;;;;;;3.63;2.25;;;;;;;17.60;58.37;100654.44;5084672;28;20500;-72
2021/06/15 03:14:17;;;;;;;2.97;1.98;;;;;;;17.52;61.48;100660.75;5082551;28;20121;-71
2021/06/15 03:16:44;;;;;;;3.85;2.17;;;;;;;17.42;60.11;100660.25;5081507;28;20458;-72
2021/06/15 03:19:15;;;;;;;3.10;1.95;;;;;;;17.35;62.27;100660.22;5086245;28;20044;-71
2021/06/15 03:21:49;;;;;;;3.45;1.90;;;;;;;17.32;61.69;100665.91;5085258;28;20039;-71
2021/06/15 03:24:19;;;;;;;4.82;1.92;;;;;;;17.34;60.48;100671.09;5081514;28;20517;-72
2021/06/15 03:27:07;;;;;;;3.58;2.13;;;;;;;17.38;59.27;100673.19;5083646;28;20401;-71
2021/06/15 03:29:37;;;;;;;3.90;2.40;;;;;;;17.40;59.04;100670.31;5074874;28;20034;-71
2021/06/15 03:32:08;;;;;;;3.88;2.33;;;;;;;17.39;59.46;100665.97;5077401;28;20029;-72
2021/06/15 03:34:39;;;;;;;3.70;2.10;;;;;;;17.31;60.56;100666.13;5070179;28;20229;-72
2021/06/15 03:37:05;;;;;;;3.13;2.00;;;;;;;17.27;60.69;100663.00;5086694;28;20053;-72
2021/06/15 03:39:32;;;;;;;4.00;2.22;;;;;;;17.32;60.18;100670.44;5080971;28;20036;-72
2021/06/15 03:42:01;;;;;;;3.95;1.83;;;;;;;17.30;61.13;100673.31;5083548;28;20043;-71
2021/06/15 03:44:27;;;;;;;2.83;1.60;;;;;;;17.28;61.72;100671.84;5073296;28;20106;-72
2021/06/15 03:46:55;;;;;;;3.97;1.60;;;;;;;17.31;61.08;100661.59;5075299;28;20123;-72
2021/06/15 03:49:21;;;;;;;2.72;1.63;;;;;;;17.31;62.04;100672.31;5079918;28;20055;-72
2021/06/15 03:51:52;;;;;;;2.95;1.65;;;;;;;17.31;60.79;100672.31;5075132;28;20032;-71
2021/06/15 03:54:18;;;;;;;3.67;2.20;;;;;;;17.25;62.34;100674.91;5080549;28;20603;-72
2021/06/15 03:56:47;;;;;;;4.03;1.83;;;;;;;17.15;62.66;100683.25;5070762;28;20048;-71
2021/06/15 03:59:16;;;;;;;2.55;1.73;;;;;;;17.08;62.99;100683.19;5079125;28;20040;-72
2021/06/15 04:01:43;;;;;;;2.60;1.70;;;;;;;17.06;63.15;100679.03;5069301;28;20379;-71
2021/06/15 04:04:11;;;;;;;4.65;2.10;;;;;;;16.98;62.48;100674.66;5051760;28;20043;-71
2021/06/15 04:06:40;;;;;;;3.60;2.10;;;;;;;16.94;64.91;100679.53;5062445;28;20452;-72
2021/06/15 04:09:07;;;;;;;3.67;1.90;;;;;;;16.89;64.96;100687.28;5061428;28;20115;-71
2021/06/15 04:11:35;;;;;;;3.67;2.20;;;;;;;16.88;63.29;100696.34;5059260;28;20435;-72
2021/06/15 04:14:02;;;;;;;5.32;2.10;;;;;;;16.93;63.08;100695.78;5061188;28;20056;-71
2021/06/15 04:16:28;;;;;;;4.30;2.08;;;;;;;16.93;64.40;100696.59;5056710;28;20101;-72
2021/06/15 04:18:56;;;;;;;4.68;2.05;;;;;;;16.96;63.54;100701.53;5057699;28;20307;-71
2021/06/15 04:21:23;;;;;;;3.10;2.10;;;;;;;17.03;62.50;100703.47;5055262;28;20179;-71
2021/06/15 04:23:55;;;;;;;4.15;2.38;;;;;;;17.02;62.65;100708.00;5057013;28;20036;-71
2021/06/15 04:26:21;;;;;;;4.13;2.20;;;;;;;16.99;64.06;100708.34;5060841;28;20041;-71
2021/06/15 04:28:46;;;;;;;3.95;2.67;;;;;;;17.00;63.56;100707.34;5054347;28;20048;-71
2021/06/15 04:31:15;;;;;;;5.20;3.47;;;;;;;16.92;63.58;100705.63;5064224;28;20060;-71
2021/06/15 04:33:45;;;;;;;5.25;3.17;;;;;;;16.98;63.95;100710.22;5058968;28;20440;-71
2021/06/15 04:36:12;;;;;;;4.93;3.13;;;;;;;17.02;64.43;100708.00;5067102;28;20032;-71
2021/06/15 04:38:45;;;;;;;5.28;3.47;;;;;;;17.01;64.16;100708.19;5069882;28;20040;-72
2021/06/15 04:41:22;;;;;;;4.78;2.85;;;;;;;17.06;63.79;100708.44;5055246;28;20044;-71
2021/06/15 04:44:06;;;;;;;7.00;2.70;;;;;;;17.11;63.71;100708.69;5072406;28;20037;-71
2021/06/15 04:46:39;;;;;;;6.15;2.70;;;;;;;17.19;62.68;100706.72;5061963;28;20635;-72
2021/06/15 04:49:29;;;;;;;3.70;2.30;;;;;;;17.26;62.59;100705.97;5062658;28;20202;-71
2021/06/15 04:51:58;;;;;;;4.40;2.33;;;;;;;17.40;62.06;100705.06;5062081;28;20399;-72
2021/06/15 04:54:31;;;;;;;3.80;2.20;;;;;;;17.56;61.50;100707.44;5063057;28;20068;-72
2021/06/15 04:56:59;;;;;;;4.45;2.15;;;;;;;17.65;60.96;100707.31;5055569;28;20154;-72
2021/06/15 04:59:26;;;;;;;4.13;1.90;;;;;;;17.71;61.55;100714.56;5066355;28;20037;-71
2021/06/15 05:01:52;;;;;;;3.67;2.15;;;;;;;17.75;60.84;100713.16;5060066;28;20096;-72
2021/06/15 05:04:17;;;;;;;3.28;2.20;;;;;;;17.78;60.75;100715.44;5063921;28;20094;-72
2021/06/15 05:06:44;;;;;;;4.80;2.20;;;;;;;17.83;60.52;100713.06;5070516;28;20051;-72
2021/06/15 05:09:10;;;;;;;4.80;2.05;;;;;;;17.80;60.85;100714.28;5080635;28;20123;-71
2021/06/15 05:11:37;;;;;;;5.45;2.50;;;;;;;18.04;60.30;100715.69;5067392;28;20024;-72
2021/06/15 05:14:05;;;;;;;5.90;2.50;;;;;;;18.32;59.38;100712.09;5061700;28;20037;-72
2021/06/15 05:16:34;;;;;;;4.53;2.25;;;;;;;18.40;59.43;100722.66;5091268;28;20028;-72
2021/06/15 05:19:01;;;;;;;4.30;2.22;;;;;;;18.62;58.71;100723.38;5087856;28;20036;-72
2021/06/15 05:22:02;;;;;;;5.28;2.30;;;;;;;18.74;59.04;100717.47;5085807;28;20077;-72
2021/06/15 05:24:45;;;;;;;3.03;1.90;;;;;;;18.89;58.17;100724.31;5073413;28;20036;-71
2021/06/15 05:27:11;;;;;;;3.40;1.90;;;;;;;19.01;58.34;100724.56;5083521;28;20046;-72
2021/06/15 05:29:36;;;;;;;4.85;2.65;;;;;;;18.93;57.79;100718.59;5080570;28;20037;-71
2021/06/15 05:32:06;;;;;;;3.53;1.92;;;;;;;18.88;58.68;100727.22;5081408;28;20116;-71
2021/06/15 05:34:31;;;;;;;3.45;1.90;;;;;;;18.92;58.51;100730.31;5075986;28;20093;-71
2021/06/15 05:36:57;;;;;;;3.83;2.00;;;;;;;18.99;58.41;100737.34;5080678;28;20032;-72
2021/06/15 05:39:22;;;;;;;6.07;2.65;;;;;;;19.16;58.67;100737.78;5082857;28;20075;-71
2021/06/15 05:41:47;;;;;;;3.70;1.98;;;;;;;19.24;58.10;100734.94;5070773;28;20090;-71
2021/06/15 05:44:12;;;;;;;3.97;2.08;;;;;;;19.45;57.34;100733.94;5070708;28;20033;-72
2021/06/15 05:46:38;;;;;;;3.85;1.90;;;;;;;19.56;57.79;100737.03;5088155;28;20031;-72
2021/06/15 05:49:03;;;;;;;3.85;2.08;;;;;;;19.63;56.96;100746.72;5079672;28;20040;-72
2021/06/15 05:51:28;;;;;;;5.25;2.05;;;;;;;19.83;56.60;100751.28;5083214;28;20058;-72
2021/06/15 05:53:55;;;;;;;2.70;1.95;;;;;;;20.15;54.71;100758.47;5078124;28;20121;-71
2021/06/15 05:56:20;;;;;;;4.30;2.40;;;;;;;20.44;53.89;100755.53;5076869;28;20036;-71
2021/06/15 05:58:45;;;;;;;5.20;2.47;;;;;;;20.63;53.96;100759.22;5077846;28;20473;-72
2021/06/15 06:01:10;;;;;;;5.93;2.47;;;;;;;20.98;55.70;100760.50;5081977;28;20043;-71
2021/06/15 06:03:38;;;;;;;5.32;3.10;;;;;;;21.30;54.22;100760.53;5083381;28;20044;-71
2021/06/15 06:08:47;;;;;;;4.50;2.92;;;;;;;21.64;55.39;100758.44;5079753;28;20218;-71
2021/06/15 06:11:13;;;;;;;5.38;2.72;;;;;;;21.83;54.76;100759.31;5081790;28;20032;-71
2021/06/15 06:13:38;;;;;;;6.50;3.03;;;;;;;21.81;53.02;100766.81;5078241;28;20054;-71
2021/06/15 06:16:08;;;;;;;4.15;2.53;;;;;;;22.23;54.08;100758.97;5070193;28;20025;-72
2021/06/15 06:18:35;;;;;;;3.28;2.15;;;;;;;22.67;52.62;100757.88;5077350;28;20075;-72
2021/06/15 06:21:04;;;;;;;6.53;2.92;;;;;;;22.87;51.30;100767.56;5079168;28;20028;-73
2021/06/15 06:23:29;;;;;;;4.72;3.10;;;;;;;22.83;52.14;100771.78;5064631;28;20032;-72
2021/06/15 06:25:54;;;;;;;4.65;3.15;;;;;;;22.94;51.75;100771.00;5083481;28;20039;-73
2021/06/15 06:28:20;;;;;;;4.53;3.33;;;;;;;23.21;52.47;100767.97;5072530;28;22409;-72
2021/06/15 06:30:45;;;;;;;4.85;3.22;;;;;;;23.20;52.19;100767.16;5077267;28;20081;-73
2021/06/15 06:33:11;;;;;;;4.55;2.85;;;;;;;23.43;51.92;100768.25;5073030;28;20036;-73
2021/06/15 06:35:36;;;;;;;3.33;2.20;;;;;;;23.90;51.54;100768.38;5075849;28;20082;-72
2021/06/15 06:38:03;;;;;;;3.28;2.30;;;;;;;24.40;50.15;100769.75;5070403;28;20028;-72
2021/06/15 06:40:29;;;;;;;4.45;2.65;;;;;;;24.62;49.20;100778.91;5071522;28;20044;-72
2021/06/15 06:42:55;;;;;;;4.22;2.75;;;;;;;24.68;48.96;100775.25;5068741;28;20036;-72
2021/06/15 06:45:20;;;;;;;4.97;3.00;;;;;;;24.73;48.55;100778.06;5073329;28;20089;-72
2021/06/15 06:47:46;;;;;;;5.40;3.17;;;;;;;24.67;48.48;100780.91;5078891;28;20151;-72
2021/06/15 06:50:11;;;;;;;4.45;3.13;;;;;;;24.70;47.64;100788.53;5076819;28;20028;-73
2021/06/15 06:52:37;;;;;;;5.32;3.15;;;;;;;25.01;47.05;100787.28;5070412;28;20044;-73
2021/06/15 06:55:03;;;;;;;5.10;3.17;;;;;;;25.17;45.40;100786.53;5081904;28;20039;-73
2021/06/15 06:57:29;;;;;;;6.15;2.70;;;;;;;25.20;46.24;100783.34;5071441;28;20477;-73
2021/06/15 06:59:54;;;;;;;3.33;2.28;;;;;;;25.46;48.04;100788.38;5071146;28;20124;-73
2021/06/15 07:02:19;;;;;;;3.55;2.08;;;;;;;25.90;47.13;100789.41;5067187;28;20040;-73
2021/06/15 07:04:44;;;;;;;4.38;2.67;;;;;;;25.98;44.75;100783.59;5068944;28;20516;-72
2021/06/15 07:07:11;;;;;;;3.58;2.25;;;;;;;26.25;43.94;100791.81;5069489;28;20044;-73
2021/06/15 07:09:36;;;;;;;5.72;2.25;;;;;;;26.66;45.04;100789.69;5078347;28;20043;-73
2021/06/15 07:12:01;;;;;;;4.45;2.50;;;;;;;26.87;43.23;100787.22;5073115;28;20553;-73
2021/06/15 07:14:27;;;;;;;4.15;2.03;;;;;;;27.12;44.72;100792.09;5082579;28;20127;-73
2021/06/15 07:16:52;;;;;;;3.95;2.10;;;;;;;27.40;42.99;100788.34;5084767;28;20127;-75
2021/06/15 07:19:17;;;;;;;4.00;2.35;;;;;;;27.68;41.56;100787.22;5078103;28;20051;-74
2021/06/15 07:21:42;;;;;;;4.20;2.45;;;;;;;28.02;40.54;100778.78;5075892;28;20089;-74
2021/06/15 07:24:08;;;;;;;3.75;1.85;;;;;;;28.05;41.70;100782.88;5079951;28;20032;-74
2021/06/15 07:26:33;;;;;;;4.60;2.00;;;;;;;28.25;43.01;100776.78;5078557;28;20485;-74
2021/06/15 07:28:59;;;;;;;7.07;3.17;;;;;;;28.41;40.61;100774.94;5084068;28;20500;-74
2021/06/15 07:31:25;;;;;;;4.18;2.55;;;;;;;28.15;41.37;100772.06;5083105;28;20032;-73
2021/06/15 07:33:50;;;;;;;3.88;1.88;;;;;;;28.26;41.48;100759.34;5072634;28;20619;-74
2021/06/15 07:36:15;;;;;;;2.97;1.90;;;;;;;28.71;40.51;100777.00;5077413;28;20040;-73
2021/06/15 07:38:41;;;;;;;5.57;2.13;;;;;;;28.93;41.01;100771.34;5086245;28;20423;-74
2021/06/15 07:41:06;;;;;;;4.30;2.47;;;;;;;29.07;40.10;100775.22;5081481;28;20125;-74
2021/06/15 07:43:32;;;;;;;5.20;2.33;;;;;;;29.08;38.43;100771.44;5075736;28;20036;-74
2021/06/15 07:45:57;;;;;;;5.38;2.38;;;;;;;29.01;40.02;100770.84;5080667;28;20028;-74
2021/06/15 07:48:22;;;;;;;5.88;2.42;;;;;;;29.55;38.86;100762.19;5078265;28;20043;-74
2021/06/15 07:50:48;;;;;;;2.75;1.88;;;;;;;29.80;38.86;100766.84;5079180;28;20094;-74
2021/06/15 07:53:13;;;;;;;4.07;1.90;;;;;;;30.11;39.69;100765.97;5075653;28;20448;-74
2021/06/15 07:55:38;;;;;;;5.05;1.92;;;;;;;30.36;38.82;100763.19;5082262;28;20021;-74
2021/06/15 07:58:04;;;;;;;3.42;2.10;;;;;;;30.08;37.34;100761.88;5071322;28;20040;-74
2021/06/15 08:00:29;;;;;;;5.22;2.00;;;;;;;29.88;36.94;100767.38;5069172;28;20040;-74
2021/06/15 08:02:54;;;;;;;3.35;1.98;;;;;;;30.18;37.86;100759.13;5084545;28;20033;-74
2021/06/15 08:05:20;;;;;;;4.00;2.00;;;;;;;30.46;37.18;100763.16;5080438;28;20089;-74
2021/06/15 08:07:49;;;;;;;4.03;2.20;;;;;;;30.46;36.99;100759.59;5082375;28;20068;-74
2021/06/15 08:10:18;;;;;;;4.40;2.28;;;;;;;30.66;36.59;100753.25;5086737;28;20105;-74
2021/06/15 08:12:43;;;;;;;3.78;1.95;;;;;;;30.75;36.83;100748.00;5077711;28;20068;-74
2021/06/15 08:15:09;;;;;;;4.32;2.55;;;;;;;31.01;36.64;100746.78;5072338;28;20037;-74
2021/06/15 08:17:35;;;;;;;2.78;1.63;;;;;;;31.17;37.65;100749.41;5064273;28;20063;-74
2021/06/15 08:20:00;;;;;;;3.35;1.92;;;;;;;31.44;37.00;100744.31;5069017;28;20500;-74
2021/06/15 08:22:26;;;;;;;3.40;2.00;;;;;;;31.52;35.84;100738.22;5053217;28;20146;-74
2021/06/15 08:24:51;;;;;;;4.32;2.10;;;;;;;31.46;36.11;100749.47;5062647;28;20515;-75
2021/06/15 08:27:16;;;;;;;4.95;1.98;;;;;;;31.85;35.60;100745.84;5063834;28;20039;-74
2021/06/15 08:29:42;;;;;;;3.17;2.10;;;;;;;31.92;34.69;100740.84;5058038;28;20505;-74
2021/06/15 08:32:07;;;;;;;4.00;2.22;;;;;;;32.16;34.67;100752.63;5062717;28;20382;-75
2021/06/15 08:34:35;;;;;;;3.20;2.00;;;;;;;32.32;33.56;100750.53;5057634;28;20055;-74
2021/06/15 08:37:02;;;;;;;5.00;2.42;;;;;;;32.35;33.65;100752.69;5068198;28;20036;-75
2021/06/15 08:39:27;;;;;;;3.10;1.90;;;;;;;32.02;34.06;100746.22;5058496;28;20127;-74
2021/06/15 08:41:52;;;;;;;3.15;1.70;;;;;;;32.35;34.49;100747.22;5066727;28;20463;-74
2021/06/15 08:44:18;;;;;;;3.30;2.10;;;;;;;32.01;31.80;100750.06;5055159;28;20393;-75
2021/06/15 08:46:45;;;;;;;3.33;1.98;;;;;;;32.36;33.60;100746.09;5052088;28;20386;-74
2021/06/15 08:49:10;;;;;;;2.47;1.55;;;;;;;32.92;34.10;100749.25;5050785;28;20097;-75
2021/06/15 08:51:36;;;;;;;3.50;2.00;;;;;;;33.09;32.60;100751.47;5056601;28;20554;-74
2021/06/15 08:54:05;;;;;;;3.92;2.20;;;;;;;32.61;31.39;100751.56;5057869;28;20123;-75
2021/06/15 08:56:32;;;;;;;3.45;2.40;;;;;;;32.32;31.86;100755.19;5058907;28;20028;-75
2021/06/15 08:59:19;;;;;;;4.18;2.30;;;;;;;32.21;32.53;100749.03;5059899;28;20044;-75
2021/06/15 09:01:50;;;;;;;4.05;2.30;;;;;;;32.63;30.66;100744.69;5054724;28;20421;-75
2021/06/15 09:04:16;;;;;;;5.25;2.22;;;;;;;32.93;31.45;100750.84;5053562;28;20124;-74
2021/06/15 09:06:42;;;;;;;3.42;1.85;;;;;;;32.81;31.40;100747.75;5057921;28;20086;-75
2021/06/15 09:09:07;;;;;;;3.58;2.08;;;;;;;32.77;30.34;100742.03;5053467;28;20501;-75
2021/06/15 09:11:50;;;;;;;4.40;2.03;;;;;;;32.14;30.67;100743.09;5061633;28;20430;-75
2021/06/15 09:14:17;;;;;;;3.60;2.00;;;;;;;31.88;31.10;100740.59;5060688;28;20095;-75
2021/06/15 09:16:47;;;;;;;3.95;2.00;;;;;;;31.69;30.02;100740.50;5065666;28;20028;-74
2021/06/15 09:19:24;;;;;;;3.95;1.90;;;;;;;31.42;31.62;100737.50;5057386;28;20029;-74
2021/06/15 09:21:52;;;;;;;3.40;1.70;;;;;;;31.78;31.54;100731.69;5063813;28;20045;-74
2021/06/15 09:24:23;;;;;;;3.35;1.95;;;;;;;31.43;32.71;100731.72;5060452;28;20076;-75
2021/06/15 09:27:00;;;;;;;;;;;;;;;31.57;33.05;100734.63;5067818;28;20040;-75
2021/06/15 09:29:34;;;;;;;3.58;1.90;;;;;;;31.70;31.26;100725.75;5062763;28;19920;-74
2021/06/15 09:32:00;;;;;;;3.30;1.98;;;;;;;31.57;31.54;100725.63;5065961;28;20082;-74
2021/06/15 09:34:25;;;;;;;4.88;1.98;;;;;;;31.34;31.15;100725.22;5050827;28;20044;-75
2021/06/15 09:36:53;;;;;;;3.08;1.92;;;;;;;31.04;31.18;100726.28;5067533;28;20298;-74
2021/06/15 09:39:18;;;;;;;2.83;1.80;;;;;;;30.77;32.45;100730.22;5063809;28;20040;-74
2021/06/15 09:41:48;;;;;;;3.05;1.70;;;;;;;30.90;32.15;100728.84;5057359;28;20032;-74
2021/06/15 09:44:20;;;;;;;3.17;2.00;;;;;;;30.84;31.73;100736.25;5064145;28;20191;-74
2021/06/15 09:46:51;;;;;;;3.35;1.90;;;;;;;30.82;32.77;100724.75;5054290;28;20041;-74
2021/06/15 09:49:29;;;;;;;;;;;;;;;30.76;32.54;100736.00;5057501;28;20087;-75
2021/06/15 09:52:12;;;;;;;3.42;2.10;;;;;;;30.69;33.32;100739.84;5063786;28;19916;-75
2021/06/15 09:55:03;;;;;;;4.00;1.73;;;;;;;30.63;32.32;100732.78;5070525;28;20124;-74
2021/06/15 09:57:41;;;;;;;3.58;2.00;;;;;;;30.74;34.56;100730.81;5076128;28;20059;-74
2021/06/15 10:00:16;;;;;;;5.20;2.08;;;;;;;30.64;33.37;100728.94;5080865;28;20052;-75
2021/06/15 10:02:51;;;;;;;3.53;1.95;;;;;;;30.80;32.98;100731.59;5091878;28;20032;-75
2021/06/15 10:05:21;;;;;;;3.15;2.00;;;;;;;30.84;33.19;100724.50;5083968;28;20039;-75
2021/06/15 10:07:47;;;;;;;;;;;;;;;30.92;32.75;100729.38;5072235;28;20036;-75
2021/06/15 10:10:16;;;;;;;4.30;1.95;;;;;;;31.02;32.78;100729.28;5074375;28;20019;-75
2021/06/15 10:12:41;;;;;;;2.42;1.63;;;;;;;31.39;32.41;100725.16;5078593;28;20043;-75
2021/06/15 10:15:07;;;;;;;3.72;2.13;;;;;;;31.33;33.36;100727.13;5074298;28;20116;-75
2021/06/15 10:17:33;;;;;;;7.22;2.15;;;;;;;31.27;31.61;100716.53;5072842;28;20392;-76
2021/06/15 10:19:59;;;;;;;4.85;2.00;;;;;;;30.88;34.13;100723.66;5081423;28;20047;-75
2021/06/15 10:22:25;;;;;;;3.85;2.13;;;;;;;31.17;32.78;100725.63;5074935;28;20043;-76
2021/06/15 10:24:50;;;;;;;2.80;1.90;;;;;;;31.13;32.63;100729.22;5077145;28;20028;-75
2021/06/15 10:27:16;;;;;;;3.75;2.10;;;;;;;31.35;33.29;100732.31;5079663;28;20039;-76
2021/06/15 10:29:48;;;;;;;4.03;2.03;;;;;;;31.26;33.61;100721.19;5079180;28;20397;-76
2021/06/15 10:32:22;;;;;;;5.68;2.30;;;;;;;31.33;32.44;100718.13;5072414;28;20116;-76
2021/06/15 10:34:49;;;;;;;4.03;2.28;;;;;;;31.19;31.99;100715.22;5085284;28;20032;-76
2021/06/15 10:37:39;;;;;;;3.08;1.80;;;;;;;31.23;31.28;100713.56;5081736;28;20131;-75
2021/06/15 10:40:25;;;;;;;4.18;2.20;;;;;;;31.33;31.92;100712.66;5078257;28;20447;-76
2021/06/15 10:43:15;;;;;;;2.40;1.70;;;;;;;31.39;35.67;100700.56;5077651;28;20047;-75
2021/06/15 10:45:41;;;;;;;3.72;2.08;;;;;;;31.37;32.24;100704.69;5076869;28;20040;-76
2021/06/15 10:48:06;;;;;;;3.60;1.90;;;;;;;31.51;31.94;100711.16;5082737;28;20047;-76
2021/06/15 10:50:35;;;;;;;2.97;2.03;;;;;;;31.48;31.21;100707.09;5069808;28;20033;-75
2021/06/15 10:53:00;;;;;;;5.82;2.10;;;;;;;31.43;30.88;100709.88;5084841;28;20454;-75
2021/06/15 10:55:47;;;;;;;4.45;2.08;;;;;;;31.27;32.24;100703.72;5085522;28;20056;-76
2021/06/15 10:58:13;;;;;;;4.57;2.38;;;;;;;31.08;32.63;100705.47;5070264;28;20035;-75
2021/06/15 11:00:53;;;;;;;4.18;2.17;;;;;;;31.02;32.30;100696.53;5075475;28;20032;-76
2021/06/15 11:03:24;;;;;;;3.40;2.30;;;;;;;31.02;32.06;100693.78;5076985;28;20036;-72
2021/06/15 11:05:57;;;;;;;3.25;2.00;;;;;;;31.09;32.76;100691.56;5065808;28;20111;-74
2021/06/15 11:08:27;;;;;;;2.92;1.83;;;;;;;30.85;33.88;100686.00;5083105;28;20052;-74
2021/06/15 11:11:02;;;;;;;3.97;2.30;;;;;;;30.80;32.60;100696.94;5078669;28;20094;-74
2021/06/15 11:13:48;;;;;;;3.88;2.30;;;;;;;30.72;32.97;100697.50;5072558;28;20055;-74
2021/06/15 11:16:45;;;;;;;4.10;1.98;;;;;;;30.69;32.02;100687.97;5072543;28;20043;-74
2021/06/15 11:19:28;;;;;;;4.07;1.90;;;;;;;30.64;31.18;100690.72;5082134;28;20087;-72
2021/06/15 11:22:08;;;;;;;6.78;2.47;;;;;;;31.01;32.25;100686.72;5074806;28;20128;-74
2021/06/15 11:24:38;;;;;;;5.70;2.45;;;;;;;30.81;32.55;100684.06;5076549;28;20511;-73
2021/06/15 11:27:13;;;;;;;4.78;2.10;;;;;;;30.50;33.40;100667.09;5072045;28;20036;-73
2021/06/15 11:29:40;;;;;;;3.92;2.20;;;;;;;30.60;33.38;100672.47;5070926;28;20114;-74
2021/06/15 11:32:17;;;;;;;4.45;2.10;;;;;;;30.64;32.05;100674.34;5085616;28;20029;-73
2021/06/15 11:34:55;;;;;;;4.50;2.28;;;;;;;30.52;34.98;100678.53;5073160;28;20045;-73
2021/06/15 11:37:46;;;;;;;2.67;1.80;;;;;;;30.64;34.60;100674.34;5071122;28;20544;-73